Time;durP1;ratioP1;P1;durP2;ratioP2;P2;SDS_P1;SDS_P2;PMS_P1;PMS_P2;Temp;Humidity;BMP_temperature;BMP_pressure;BME280_temperature;BME280_humidity;BME280_pressure;Samples;Min_cycle;Max_cycle;Signal;HPM_P1;HPM_P2
2023/07/21 00:01:08;;;;;;;2.83;1.42;;;13.20;99.90;;;;;;5002650;28;20117;-78
2023/07/21 00:03:34;;;;;;;1.63;1.50;;;13.20;99.90;;;;;;5001974;28;20672;-77
2023/07/21 00:06:02;;;;;;;2.42;1.15;;;13.20;99.90;;;;;;4975450;28;20069;-78
2023/07/21 00:08:30;;;;;;;2.97;1.50;;;13.20;99.90;;;;;;4992533;28;20019;-78
2023/07/21 00:10:57;;;;;;;3.13;1.48;;;13.20;99.90;;;;;;5002801;28;20025;-78
2023/07/21 00:13:23;;;;;;;1.55;1.15;;;13.10;99.90;;;;;;5004374;28;20021;-78
2023/07/21 00:15:49;;;;;;;1.85;1.17;;;13.10;99.90;;;;;;4984654;28;20014;-78
2023/07/21 00:18:15;;;;;;;3.28;1.58;;;13.10;99.90;;;;;;5003750;28;20037;-78
2023/07/21 00:20:41;;;;;;;2.17;1.20;;;13.00;99.90;;;;;;4996748;28;20022;-78
2023/07/21 00:23:07;;;;;;;2.40;1.45;;;13.00;99.90;;;;;;4982236;28;20030;-77
2023/07/21 00:25:32;;;;;;;1.42;1.20;;;13.00;99.90;;;;;;5000709;28;20105;-78
2023/07/21 00:27:58;;;;;;;2.00;1.27;;;12.90;99.90;;;;;;4978301;28;20568;-77
2023/07/21 00:30:24;;;;;;;2.13;1.70;;;12.90;99.90;;;;;;4985087;28;20037;-77
2023/07/21 00:32:50;;;;;;;1.35;1.10;;;12.80;99.90;;;;;;4976320;28;20025;-78
2023/07/21 00:35:16;;;;;;;3.78;1.80;;;12.80;99.90;;;;;;5001347;28;20476;-78
2023/07/21 00:37:41;;;;;;;2.90;1.60;;;12.80;99.90;;;;;;4984787;28;20085;-76
2023/07/21 00:40:18;;;;;;;2.08;1.40;;;12.80;99.90;;;;;;4997975;28;20022;-77
2023/07/21 00:42:43;;;;;;;5.00;1.63;;;12.70;99.90;;;;;;4990447;28;20092;-78
2023/07/21 00:45:09;;;;;;;3.72;1.98;;;12.70;99.90;;;;;;5000061;28;20477;-78
2023/07/21 00:47:36;;;;;;;3.28;1.77;;;12.60;99.90;;;;;;4992540;28;20029;-77
2023/07/21 00:50:02;;;;;;;2.17;1.50;;;12.60;99.90;;;;;;4984995;28;20634;-78
2023/07/21 00:52:28;;;;;;;1.77;1.40;;;12.60;99.90;;;;;;4987035;28;20030;-77
2023/07/21 00:54:54;;;;;;;2.60;1.60;;;12.50;99.90;;;;;;4995870;28;20030;-78
2023/07/21 00:57:21;;;;;;;1.60;1.30;;;12.40;99.90;;;;;;4999190;28;20033;-77
2023/07/21 00:59:47;;;;;;;2.33;1.80;;;12.40;99.90;;;;;;4986099;28;20417;-77
2023/07/21 01:02:12;;;;;;;2.42;1.55;;;12.40;99.90;;;;;;4996033;28;20045;-77
2023/07/21 01:04:39;;;;;;;2.70;1.65;;;12.30;99.90;;;;;;5004260;28;20049;-77
2023/07/21 01:07:09;;;;;;;3.20;1.60;;;12.30;99.90;;;;;;4995401;28;20073;-77
2023/07/21 01:09:37;;;;;;;1.30;1.20;;;12.30;99.90;;;;;;4997809;28;20030;-77
2023/07/21 01:12:05;;;;;;;1.27;1.17;;;12.30;99.90;;;;;;5000132;28;20038;-78
2023/07/21 01:14:30;;;;;;;2.10;1.23;;;12.20;99.90;;;;;;4998790;28;20059;-77
2023/07/21 01:16:58;;;;;;;2.40;1.77;;;12.10;99.90;;;;;;5003964;28;20485;-77
2023/07/21 01:19:26;;;;;;;7.25;1.60;;;12.10;99.90;;;;;;4998521;28;20022;-77
2023/07/21 01:21:57;;;;;;;2.20;1.60;;;12.10;99.90;;;;;;5003431;28;20018;-77
2023/07/21 01:24:44;;;;;;;2.95;1.50;;;12.00;99.90;;;;;;4998332;28;20041;-77
2023/07/21 01:27:12;;;;;;;2.55;1.40;;;12.00;99.90;;;;;;4971011;28;20039;-77
2023/07/21 01:29:41;;;;;;;3.45;1.35;;;12.00;99.90;;;;;;4998341;28;20482;-77
2023/07/21 01:32:10;;;;;;;2.00;1.60;;;12.00;99.90;;;;;;5002305;28;20042;-77
2023/07/21 01:34:37;;;;;;;3.15;1.60;;;11.90;99.90;;;;;;4999700;28;20032;-77
2023/07/21 01:37:04;;;;;;;2.10;1.77;;;11.90;99.90;;;;;;4994500;28;20538;-77
2023/07/21 01:39:31;;;;;;;3.05;1.58;;;11.90;99.90;;;;;;4988439;28;20069;-77
2023/07/21 01:42:00;;;;;;;2.55;2.05;;;11.90;99.90;;;;;;5001158;28;20038;-79
2023/07/21 01:44:26;;;;;;;1.98;1.50;;;11.90;99.90;;;;;;5001086;28;20033;-77
2023/07/21 01:46:54;;;;;;;2.03;1.55;;;11.90;99.90;;;;;;4981424;28;20022;-77
2023/07/21 01:49:20;;;;;;;3.00;1.67;;;11.80;99.90;;;;;;5002360;28;20036;-77
2023/07/21 01:51:50;;;;;;;4.18;1.63;;;11.80;99.90;;;;;;5001377;28;20108;-77
2023/07/21 01:54:36;;;;;;;1.67;1.50;;;11.80;99.90;;;;;;5004320;28;20079;-78
2023/07/21 01:57:07;;;;;;;1.50;1.40;;;11.80;99.90;;;;;;4999640;28;20015;-77
2023/07/21 01:59:32;;;;;;;4.03;2.28;;;11.70;99.90;;;;;;5004600;28;20488;-77
2023/07/21 02:01:59;;;;;;;2.80;1.80;;;11.70;99.90;;;;;;4979978;28;20089;-77
2023/07/21 02:04:25;;;;;;;2.53;1.92;;;11.60;99.90;;;;;;4988310;28;20460;-77
2023/07/21 02:06:51;;;;;;;2.50;1.85;;;11.60;99.90;;;;;;4993841;28;20022;-77
2023/07/21 02:09:17;;;;;;;2.67;1.52;;;11.60;99.90;;;;;;4993905;28;20038;-77
2023/07/21 02:11:44;;;;;;;3.22;2.05;;;11.60;99.90;;;;;;4988657;28;20030;-77
2023/07/21 02:14:09;;;;;;;3.15;1.80;;;11.60;99.90;;;;;;4997693;28;20037;-77
2023/07/21 02:16:37;;;;;;;2.22;1.83;;;11.60;99.90;;;;;;5004413;28;20026;-77
2023/07/21 02:19:05;;;;;;;3.72;1.98;;;11.60;99.90;;;;;;4998778;28;20064;-78
2023/07/21 02:21:31;;;;;;;6.03;1.98;;;11.50;99.90;;;;;;5006795;28;20037;-77
2023/07/21 02:23:56;;;;;;;2.50;2.08;;;11.50;99.90;;;;;;5001302;28;20024;-77
2023/07/21 02:26:22;;;;;;;2.13;1.60;;;11.50;99.90;;;;;;5000132;28;20105;-77
2023/07/21 02:28:47;;;;;;;2.42;2.22;;;11.50;99.90;;;;;;5007204;28;20027;-77
2023/07/21 02:31:13;;;;;;;1.88;1.60;;;11.50;99.90;;;;;;4983489;28;20038;-78
2023/07/21 02:33:38;;;;;;;2.15;1.70;;;11.50;99.90;;;;;;4990345;28;20026;-77
2023/07/21 02:36:05;;;;;;;1.65;1.45;;;11.50;99.90;;;;;;5001885;28;20034;-78
2023/07/21 02:38:30;;;;;;;3.90;2.05;;;11.50;99.90;;;;;;5012267;28;20032;-78
2023/07/21 02:41:04;;;;;;;2.67;1.85;;;11.50;99.90;;;;;;4985231;28;20424;-78
2023/07/21 02:43:30;;;;;;;1.88;1.60;;;11.50;99.90;;;;;;4983770;28;20106;-78
2023/07/21 02:45:56;;;;;;;2.55;1.50;;;11.50;99.90;;;;;;4980083;28;20029;-78
2023/07/21 02:48:22;;;;;;;6.60;1.77;;;11.50;99.90;;;;;;5002093;28;20018;-78
2023/07/21 02:50:55;;;;;;;1.67;1.45;;;11.50;99.90;;;;;;4997242;28;20056;-78
2023/07/21 02:53:21;;;;;;;2.92;2.00;;;11.50;99.90;;;;;;4992053;28;20022;-79
2023/07/21 02:55:47;;;;;;;2.17;1.58;;;11.50;99.90;;;;;;4994970;28;20018;-78
2023/07/21 02:58:14;;;;;;;1.75;1.45;;;11.50;99.90;;;;;;5009037;28;20485;-77
2023/07/21 03:00:40;;;;;;;1.67;1.58;;;11.50;99.90;;;;;;5000955;28;20109;-78
2023/07/21 03:03:07;;;;;;;3.30;2.08;;;11.60;99.90;;;;;;5003455;28;20034;-78
2023/07/21 03:05:33;;;;;;;3.10;1.98;;;11.60;99.90;;;;;;5007281;28;20030;-78
2023/07/21 03:07:59;;;;;;;2.35;1.67;;;11.60;99.90;;;;;;5006902;28;20513;-78
2023/07/21 03:10:25;;;;;;;2.58;2.08;;;11.60;99.90;;;;;;5003029;28;20030;-78
2023/07/21 03:12:51;;;;;;;3.90;2.40;;;11.60;99.90;;;;;;5007014;28;20029;-78
2023/07/21 03:15:16;;;;;;;2.03;1.67;;;11.60;99.90;;;;;;5005000;28;20055;-78
2023/07/21 03:17:42;;;;;;;2.60;1.60;;;11.60;99.90;;;;;;4990146;28;20033;-78
2023/07/21 03:20:12;;;;;;;3.00;1.58;;;11.70;99.90;;;;;;5005005;28;20023;-78
2023/07/21 03:22:38;;;;;;;4.55;2.47;;;11.70;99.90;;;;;;5002944;28;20025;-78
2023/07/21 03:25:06;;;;;;;6.25;2.25;;;11.70;99.90;;;;;;5008687;28;20085;-78
2023/07/21 03:27:33;;;;;;;4.13;2.10;;;11.70;99.90;;;;;;4986708;28;20022;-78
2023/07/21 03:29:58;;;;;;;2.00;1.77;;;11.70;99.90;;;;;;5005558;28;20025;-78
2023/07/21 03:32:24;;;;;;;2.42;2.22;;;11.70;99.90;;;;;;4985467;28;20050;-78
2023/07/21 03:34:49;;;;;;;2.67;2.10;;;11.70;99.90;;;;;;5006203;28;20022;-78
2023/07/21 03:37:15;;;;;;;2.33;2.10;;;11.70;99.90;;;;;;5007673;28;20038;-78
2023/07/21 03:39:44;;;;;;;8.20;2.17;;;11.70;99.90;;;;;;4986047;28;20022;-78
2023/07/21 03:42:10;;;;;;;2.75;2.03;;;11.70;99.90;;;;;;4989588;28;20396;-77
2023/07/21 03:44:35;;;;;;;1.85;1.73;;;11.80;99.90;;;;;;4997007;28;20022;-78
2023/07/21 03:47:01;;;;;;;2.08;1.40;;;11.80;99.90;;;;;;4991907;28;20028;-78
2023/07/21 03:49:26;;;;;;;3.03;2.10;;;11.80;99.90;;;;;;5011968;28;20080;-78
2023/07/21 03:51:52;;;;;;;3.25;2.42;;;11.80;99.90;;;;;;5003487;28;20029;-77
2023/07/21 03:54:17;;;;;;;3.47;2.05;;;11.80;99.90;;;;;;4999205;28;20029;-77
2023/07/21 03:56:43;;;;;;;4.80;1.88;;;11.80;99.90;;;;;;5004025;28;20539;-77
2023/07/21 03:59:08;;;;;;;3.80;2.10;;;11.80;99.90;;;;;;5004550;28;20394;-77
2023/07/21 04:01:34;;;;;;;7.03;2.28;;;11.80;99.90;;;;;;4983549;28;20026;-78
2023/07/21 04:04:00;;;;;;;3.72;2.60;;;11.80;99.90;;;;;;4999621;28;20025;-78
2023/07/21 04:06:25;;;;;;;3.53;2.42;;;11.80;99.90;;;;;;5004134;28;20109;-78
2023/07/21 04:08:53;;;;;;;3.13;2.17;;;11.90;99.90;;;;;;4990413;28;20072;-78
2023/07/21 04:11:19;;;;;;;3.40;2.17;;;11.80;99.90;;;;;;4987130;28;20022;-78
2023/07/21 04:13:45;;;;;;;3.40;1.85;;;11.80;99.90;;;;;;4987539;28;20536;-78
2023/07/21 04:16:11;;;;;;;2.22;1.63;;;11.80;99.90;;;;;;4998929;28;20036;-77
2023/07/21 04:18:38;;;;;;;3.35;1.80;;;11.80;99.90;;;;;;4986461;28;20587;-77
2023/07/21 04:21:04;;;;;;;3.47;2.05;;;11.80;99.90;;;;;;5005922;28;20076;-78
2023/07/21 04:23:29;;;;;;;2.85;2.13;;;11.80;99.90;;;;;;5003602;28;20023;-78
2023/07/21 04:25:55;;;;;;;3.55;2.78;;;11.80;99.90;;;;;;4987326;28;20069;-77
2023/07/21 04:28:21;;;;;;;2.28;1.92;;;11.80;99.90;;;;;;4982793;28;20042;-78
2023/07/21 04:30:47;;;;;;;4.00;2.13;;;11.80;99.90;;;;;;5004751;28;20037;-78
2023/07/21 04:33:13;;;;;;;3.13;2.08;;;11.80;99.90;;;;;;5005425;28;20029;-78
2023/07/21 04:35:48;;;;;;;2.28;2.00;;;11.80;99.90;;;;;;4986333;28;20027;-78
2023/07/21 04:38:14;;;;;;;3.55;2.65;;;11.80;99.90;;;;;;5005423;28;20026;-78
2023/07/21 04:40:44;;;;;;;5.55;3.60;;;11.90;99.90;;;;;;4987074;28;20124;-78
2023/07/21 04:43:11;;;;;;;4.65;2.70;;;11.90;99.90;;;;;;5004965;28;20156;-77
2023/07/21 04:45:40;;;;;;;5.93;2.45;;;12.00;99.90;;;;;;4981775;28;20389;-77
2023/07/21 04:48:06;;;;;;;2.97;2.25;;;12.00;99.90;;;;;;5000245;28;20061;-77
2023/07/21 04:50:31;;;;;;;3.72;2.20;;;12.00;99.90;;;;;;4994064;28;20132;-77
2023/07/21 04:52:57;;;;;;;3.80;2.63;;;12.00;99.90;;;;;;5007531;28;20032;-78
2023/07/21 04:55:22;;;;;;;5.65;2.58;;;12.10;99.90;;;;;;5002208;28;20125;-76
2023/07/21 04:57:48;;;;;;;4.00;3.03;;;12.10;99.90;;;;;;4990271;28;20115;-77
2023/07/21 05:00:15;;;;;;;4.15;3.22;;;12.20;99.90;;;;;;5000956;28;20431;-77
2023/07/21 05:02:40;;;;;;;2.95;2.13;;;12.20;99.90;;;;;;5002420;28;20030;-77
2023/07/21 05:05:07;;;;;;;3.45;2.50;;;12.20;99.90;;;;;;5007023;28;20088;-77
2023/07/21 05:07:33;;;;;;;3.28;2.55;;;12.20;99.90;;;;;;5003509;28;20438;-77
2023/07/21 05:09:58;;;;;;;3.13;2.22;;;12.30;99.90;;;;;;4987675;28;20027;-78
2023/07/21 05:12:25;;;;;;;5.50;2.75;;;12.30;99.90;;;;;;5006059;28;20157;-77
2023/07/21 05:14:51;;;;;;;4.32;2.70;;;12.40;99.90;;;;;;5001026;28;20489;-78
2023/07/21 05:17:17;;;;;;;7.63;2.70;;;12.50;99.90;;;;;;5004228;28;20030;-76
2023/07/21 05:19:44;;;;;;;5.38;3.67;;;12.50;99.90;;;;;;4992458;28;20022;-79
2023/07/21 05:22:09;;;;;;;7.57;3.20;;;12.60;99.90;;;;;;4996498;28;20033;-76
2023/07/21 05:24:35;;;;;;;4.05;2.78;;;12.70;99.90;;;;;;5010824;28;20074;-77
2023/07/21 05:27:00;;;;;;;5.88;3.10;;;12.80;99.90;;;;;;5009835;28;20038;-77
2023/07/21 05:29:26;;;;;;;4.07;2.67;;;12.90;99.90;;;;;;5001166;28;20041;-77
2023/07/21 05:31:52;;;;;;;6.43;4.25;;;13.00;99.90;;;;;;5004309;28;20516;-78
2023/07/21 05:34:18;;;;;;;4.68;3.22;;;13.10;99.90;;;;;;4992782;28;20030;-77
2023/07/21 05:36:43;;;;;;;4.00;3.03;;;13.30;99.90;;;;;;5004887;28;20490;-77
2023/07/21 05:39:09;;;;;;;3.55;3.00;;;13.40;99.90;;;;;;5012043;28;20030;-77
2023/07/21 05:41:34;;;;;;;4.70;3.17;;;13.50;99.90;;;;;;5005781;28;20489;-77
2023/07/21 05:44:00;;;;;;;3.50;3.20;;;13.60;99.90;;;;;;5013338;28;20022;-77
2023/07/21 05:46:25;;;;;;;4.28;3.78;;;13.60;99.90;;;;;;4996045;28;20022;-78
2023/07/21 05:48:51;;;;;;;5.07;3.97;;;13.70;99.90;;;;;;5012067;28;20082;-77
2023/07/21 05:51:17;;;;;;;3.40;3.10;;;13.80;99.90;;;;;;5011197;28;20077;-78
2023/07/21 05:53:43;;;;;;;5.68;3.25;;;13.90;99.90;;;;;;4986210;28;20029;-78
2023/07/21 05:56:11;;;;;;;3.92;2.97;;;13.90;99.90;;;;;;5012215;28;20381;-78
2023/07/21 05:58:37;;;;;;;3.60;3.22;;;14.10;99.90;;;;;;5007910;28;20029;-78
2023/07/21 06:01:03;;;;;;;3.30;2.85;;;14.20;99.90;;;;;;5005588;28;20031;-78
2023/07/21 06:03:29;;;;;;;3.30;2.65;;;14.20;99.90;;;;;;4995012;28;20038;-78
2023/07/21 06:05:54;;;;;;;3.45;2.78;;;14.20;99.90;;;;;;4986753;28;20027;-78
2023/07/21 06:08:21;;;;;;;5.40;2.63;;;14.20;99.90;;;;;;5007941;28;20019;-78
2023/07/21 06:10:46;;;;;;;4.00;2.47;;;14.20;99.90;;;;;;5007781;28;20488;-77
2023/07/21 06:13:12;;;;;;;3.50;2.65;;;14.30;99.90;;;;;;5007260;28;20030;-76
2023/07/21 06:15:37;;;;;;;3.33;3.03;;;14.50;99.90;;;;;;4988059;28;20552;-77
2023/07/21 06:18:05;;;;;;;5.15;2.70;;;14.60;99.90;;;;;;5006842;28;20511;-77
2023/07/21 06:20:31;;;;;;;6.72;3.55;;;14.80;99.90;;;;;;4981742;28;20022;-76
2023/07/21 06:22:57;;;;;;;4.70;2.40;;;14.80;99.90;;;;;;5004094;28;20085;-77
2023/07/21 06:25:26;;;;;;;5.03;2.28;;;14.80;99.90;;;;;;4984597;28;20019;-76
2023/07/21 06:27:51;;;;;;;3.80;2.25;;;14.90;99.90;;;;;;4974456;28;20026;-77
2023/07/21 06:30:17;;;;;;;5.53;2.55;;;14.90;99.90;;;;;;4992951;28;20022;-78
2023/07/21 06:32:42;;;;;;;4.88;2.65;;;14.90;99.90;;;;;;5006299;28;20402;-77
2023/07/21 06:35:09;;;;;;;3.88;2.38;;;14.90;99.90;;;;;;5006608;28;20030;-77
2023/07/21 06:37:37;;;;;;;5.00;2.45;;;14.90;99.90;;;;;;4988949;28;20347;-78
2023/07/21 06:40:05;;;;;;;3.85;2.45;;;15.00;99.90;;;;;;4995701;28;20026;-77
2023/07/21 06:42:31;;;;;;;3.40;2.20;;;15.10;99.90;;;;;;5018111;28;20045;-78
2023/07/21 06:44:56;;;;;;;6.00;2.45;;;15.20;99.90;;;;;;4995405;28;20396;-77
2023/07/21 06:47:23;;;;;;;3.22;2.00;;;15.50;99.90;;;;;;5010752;28;20045;-77
2023/07/21 06:49:49;;;;;;;6.47;2.53;;;15.70;99.90;;;;;;5011836;28;20109;-77
2023/07/21 06:52:15;;;;;;;2.85;1.60;;;15.90;99.90;;;;;;5005801;28;20415;-77
2023/07/21 06:54:40;;;;;;;3.63;1.70;;;16.00;99.90;;;;;;4989014;28;20033;-78
2023/07/21 06:57:06;;;;;;;2.47;1.23;;;16.00;99.90;;;;;;5009640;28;20029;-77
2023/07/21 06:59:33;;;;;;;6.05;1.75;;;16.10;99.90;;;;;;5005830;28;20024;-77
2023/07/21 07:01:59;;;;;;;3.15;1.65;;;16.10;99.90;;;;;;5007088;28;20049;-77
2023/07/21 07:04:25;;;;;;;3.42;1.60;;;16.10;99.90;;;;;;4986674;28;20477;-76
2023/07/21 07:06:52;;;;;;;4.03;1.80;;;16.20;99.90;;;;;;5003977;28;20029;-77
2023/07/21 07:09:18;;;;;;;2.80;1.70;;;16.20;99.90;;;;;;4989855;28;20052;-77
2023/07/21 07:11:44;;;;;;;2.67;1.33;;;16.20;99.90;;;;;;5003208;28;20029;-77
2023/07/21 07:14:10;;;;;;;2.22;1.40;;;16.20;99.90;;;;;;5007526;28;20048;-77
2023/07/21 07:16:36;;;;;;;4.80;2.83;;;16.30;99.90;;;;;;5003872;28;20030;-77
2023/07/21 07:19:03;;;;;;;2.20;1.60;;;16.40;99.90;;;;;;4987598;28;20025;-77
2023/07/21 07:21:28;;;;;;;3.22;1.40;;;16.40;99.90;;;;;;5001362;28;20656;-76
2023/07/21 07:23:54;;;;;;;2.80;1.17;;;16.40;99.90;;;;;;5004529;28;20018;-77
2023/07/21 07:26:19;;;;;;;1.63;0.95;;;16.50;99.90;;;;;;5000599;28;20026;-77
2023/07/21 07:28:45;;;;;;;2.15;1.33;;;16.60;99.90;;;;;;4999075;28;20018;-77
2023/07/21 07:31:11;;;;;;;4.18;1.13;;;16.70;99.90;;;;;;5003323;28;20037;-77
2023/07/21 07:33:36;;;;;;;2.72;0.95;;;16.80;99.90;;;;;;4979910;28;20042;-77
2023/07/21 07:36:02;;;;;;;3.47;1.27;;;17.00;99.90;;;;;;4986274;28;20048;-77
2023/07/21 07:38:28;;;;;;;2.85;1.10;;;17.20;99.90;;;;;;5002594;28;20121;-79
2023/07/21 07:40:59;;;;;;;1.92;1.00;;;17.30;99.90;;;;;;5007681;28;20712;-76
2023/07/21 07:43:25;;;;;;;2.28;1.10;;;17.50;99.90;;;;;;4987216;28;20025;-77
2023/07/21 07:45:50;;;;;;;3.85;1.02;;;17.70;99.90;;;;;;5001374;28;20022;-76
2023/07/21 07:48:16;;;;;;;2.90;0.85;;;17.90;99.90;;;;;;5004070;28;20025;-76
2023/07/21 07:50:42;;;;;;;1.50;0.77;;;17.90;99.90;;;;;;5002131;28;20018;-77
2023/07/21 07:53:08;;;;;;;3.60;1.17;;;17.90;99.90;;;;;;5001143;28;20026;-77
2023/07/21 07:55:41;;;;;;;2.13;0.95;;;17.90;99.90;;;;;;5004700;28;20056;-77
2023/07/21 07:58:08;;;;;;;2.80;1.05;;;17.90;99.90;;;;;;4986929;28;20120;-77
2023/07/21 08:00:38;;;;;;;2.45;1.08;;;18.10;99.90;;;;;;5000913;28;20108;-77
2023/07/21 08:03:05;;;;;;;1.38;1.10;;;18.40;99.90;;;;;;5004538;28;20029;-77
2023/07/21 08:05:38;;;;;;;3.22;1.45;;;18.50;99.90;;;;;;5003330;28;20026;-75
2023/07/21 08:08:04;;;;;;;1.55;1.00;;;18.60;99.90;;;;;;5002048;28;20076;-77
2023/07/21 08:10:30;;;;;;;1.10;1.00;;;18.60;99.90;;;;;;5001343;28;20041;-76
2023/07/21 08:12:57;;;;;;;2.13;1.25;;;18.60;99.90;;;;;;4987058;28;20023;-77
2023/07/21 08:15:23;;;;;;;1.67;0.90;;;18.70;99.90;;;;;;5000623;28;20493;-79
2023/07/21 08:17:49;;;;;;;1.33;0.95;;;18.90;99.90;;;;;;5006831;28;20042;-77
2023/07/21 08:20:16;;;;;;;6.00;1.23;;;19.10;99.90;;;;;;4999844;28;20549;-78
2023/07/21 08:22:42;;;;;;;2.47;1.05;;;19.10;99.90;;;;;;4996946;28;20028;-78
2023/07/21 08:25:08;;;;;;;2.00;1.10;;;19.00;99.90;;;;;;4977046;28;20027;-77
2023/07/21 08:27:35;;;;;;;1.25;1.00;;;18.80;99.90;;;;;;5000359;28;20500;-77
2023/07/21 08:30:01;;;;;;;3.17;1.52;;;18.90;99.90;;;;;;5004431;28;20018;-77
2023/07/21 08:32:27;;;;;;;1.83;1.13;;;18.90;99.90;;;;;;4999556;28;20089;-77
2023/07/21 08:34:55;;;;;;;2.22;1.15;;;18.90;99.90;;;;;;5005148;28;20612;-77
2023/07/21 08:37:20;;;;;;;2.85;1.17;;;18.90;99.90;;;;;;4999183;28;20477;-77
2023/07/21 08:39:46;;;;;;;0.80;0.80;;;18.80;99.90;;;;;;5007038;28;20026;-77
2023/07/21 08:42:13;;;;;;;1.10;0.95;;;18.90;99.90;;;;;;4999162;28;20018;-77
2023/07/21 08:44:39;;;;;;;2.55;1.10;;;18.90;99.90;;;;;;4980561;28;20362;-77
2023/07/21 08:47:05;;;;;;;2.65;1.30;;;19.00;99.90;;;;;;4999691;28;20184;-77
2023/07/21 08:49:32;;;;;;;1.98;1.13;;;19.10;99.90;;;;;;4983652;28;20399;-77
2023/07/21 08:51:57;;;;;;;4.32;1.73;;;19.00;99.90;;;;;;4989183;28;20025;-77
2023/07/21 08:54:23;;;;;;;1.33;1.23;;;19.10;99.90;;;;;;4998184;28;20031;-77
2023/07/21 08:56:48;;;;;;;2.45;1.38;;;19.10;99.90;;;;;;4988994;28;20022;-77
2023/07/21 08:59:14;;;;;;;1.77;0.88;;;19.20;99.90;;;;;;4998696;28;20019;-76
2023/07/21 09:01:39;;;;;;;2.72;1.00;;;19.40;99.90;;;;;;4996376;28;20700;-77
2023/07/21 09:04:19;;;;;;;2.90;1.00;;;19.60;99.90;;;;;;5004904;28;20510;-78
2023/07/21 09:06:55;;;;;;;4.50;1.05;;;19.70;99.90;;;;;;4992839;28;20048;-77
2023/07/21 09:09:21;;;;;;;;;;;19.60;99.90;;;;;;4987463;28;20034;-77
2023/07/21 09:11:48;;;;;;;2.78;1.10;;;19.60;99.90;;;;;;5002339;28;19952;-77
2023/07/21 09:14:15;;;;;;;5.25;1.35;;;19.60;99.90;;;;;;4983825;28;20026;-78
2023/07/21 09:16:42;;;;;;;3.30;1.40;;;19.80;99.90;;;;;;4977925;28;20046;-76
2023/07/21 09:19:08;;;;;;;2.10;0.98;;;19.90;99.90;;;;;;5001866;28;20033;-76
2023/07/21 09:21:35;;;;;;;1.55;0.88;;;20.00;99.90;;;;;;4976284;28;20034;-77
2023/07/21 09:24:06;;;;;;;1.13;0.82;;;20.20;99.90;;;;;;5003733;28;20101;-75
2023/07/21 09:26:32;;;;;;;2.30;1.05;;;20.30;99.90;;;;;;4994861;28;20160;-77
2023/07/21 09:28:58;;;;;;;1.80;0.95;;;20.30;99.90;;;;;;5000078;28;20082;-77
2023/07/21 09:31:32;;;;;;;1.58;0.90;;;20.10;99.90;;;;;;5000155;28;20444;-77
2023/07/21 09:34:09;;;;;;;0.75;0.60;;;20.10;99.90;;;;;;4989531;28;20049;-76
2023/07/21 09:36:35;;;;;;;2.05;1.13;;;20.20;99.90;;;;;;4982799;28;20063;-76
2023/07/21 09:39:03;;;;;;;0.88;0.88;;;20.40;99.90;;;;;;4984798;28;20124;-76
2023/07/21 09:41:32;;;;;;;2.08;1.17;;;20.60;99.90;;;;;;4984193;28;20030;-76
2023/07/21 09:43:59;;;;;;;1.60;0.90;;;20.70;99.90;;;;;;5000815;28;20029;-76
2023/07/21 09:46:25;;;;;;;1.55;1.00;;;20.90;99.90;;;;;;4998757;28;20067;-76
2023/07/21 09:48:52;;;;;;;2.38;1.00;;;20.90;99.90;;;;;;5002082;28;20010;-77
2023/07/21 09:51:18;;;;;;;1.17;0.90;;;20.80;99.90;;;;;;5001248;28;20030;-77
2023/07/21 09:53:45;;;;;;;0.80;0.60;;;20.80;99.90;;;;;;4983557;28;20504;-77
2023/07/21 09:56:13;;;;;;;1.30;0.90;;;20.60;99.90;;;;;;4979783;28;20397;-77
2023/07/21 09:58:52;;;;;;;1.85;1.30;;;20.50;99.90;;;;;;4998815;28;20019;-77
2023/07/21 10:01:19;;;;;;;3.45;0.95;;;20.50;99.90;;;;;;4983395;28;20081;-76
2023/07/21 10:03:44;;;;;;;1.10;0.90;;;20.60;99.90;;;;;;4980839;28;20040;-77
2023/07/21 10:06:11;;;;;;;1.38;1.00;;;20.80;99.90;;;;;;4987821;28;20025;-76
2023/07/21 10:08:38;;;;;;;1.45;0.88;;;20.80;99.90;;;;;;4999196;28;20034;-77
2023/07/21 10:11:07;;;;;;;0.90;0.80;;;21.00;99.90;;;;;;5002717;28;20025;-77
2023/07/21 10:13:33;;;;;;;2.33;1.20;;;21.10;99.90;;;;;;4998265;28;20022;-77
2023/07/21 10:16:01;;;;;;;1.40;0.73;;;21.20;99.90;;;;;;4983410;28;20485;-76
2023/07/21 10:18:27;;;;;;;2.60;1.00;;;21.20;99.90;;;;;;4982577;28;20131;-77
2023/07/21 10:20:55;;;;;;;1.02;0.88;;;21.20;99.90;;;;;;5000681;28;20633;-77
2023/07/21 10:23:31;;;;;;;1.48;1.10;;;21.10;99.90;;;;;;4995642;28;20108;-77
2023/07/21 10:26:04;;;;;;;1.30;1.20;;;21.00;98.70;;;;;;4978901;28;20034;-77
2023/07/21 10:28:30;;;;;;;2.55;1.00;;;21.00;99.90;;;;;;5003707;28;20026;-78
2023/07/21 10:31:21;;;;;;;1.45;1.10;;;21.00;99.90;;;;;;4979748;28;20039;-77
2023/07/21 10:34:05;;;;;;;1.77;1.00;;;20.80;99.20;;;;;;5004176;28;20601;-77
2023/07/21 10:36:52;;;;;;;0.93;0.80;;;20.50;98.70;;;;;;4995001;28;20478;-77
2023/07/21 10:39:31;;;;;;;1.23;1.05;;;20.50;99.60;;;;;;4983853;28;20034;-77
2023/07/21 10:41:58;;;;;;;1.27;1.05;;;20.40;99.30;;;;;;4991817;28;20026;-77
2023/07/21 10:44:31;;;;;;;2.65;0.82;;;20.30;99.10;;;;;;5002113;28;20097;-76
2023/07/21 10:46:57;;;;;;;2.15;0.80;;;20.30;99.90;;;;;;5005035;28;20029;-77
2023/07/21 10:49:22;;;;;;;2.22;1.10;;;20.20;99.90;;;;;;5003540;28;20030;-77
2023/07/21 10:51:49;;;;;;;1.98;0.80;;;20.20;99.90;;;;;;4986712;28;20026;-77
2023/07/21 10:54:16;;;;;;;1.60;0.88;;;20.10;99.90;;;;;;5003129;28;20477;-77
2023/07/21 10:56:44;;;;;;;1.60;0.95;;;20.30;99.90;;;;;;4993566;28;20030;-77
2023/07/21 10:59:11;;;;;;;0.73;0.70;;;20.50;99.90;;;;;;5004249;28;20381;-77
2023/07/21 11:01:41;;;;;;;1.25;1.15;;;20.70;98.40;;;;;;5001853;28;20026;-76
2023/07/21 11:04:07;;;;;;;0.80;0.60;;;20.80;99.50;;;;;;5003080;28;20041;-77
2023/07/21 11:06:39;;;;;;;1.45;0.90;;;21.00;99.50;;;;;;4984575;28;20019;-77
2023/07/21 11:09:04;;;;;;;2.17;0.82;;;21.20;99.40;;;;;;4998994;28;20023;-77
2023/07/21 11:11:30;;;;;;;1.50;0.70;;;21.20;99.90;;;;;;5005356;28;20022;-77
2023/07/21 11:13:55;;;;;;;0.98;0.80;;;21.20;98.40;;;;;;4981415;28;20033;-77
2023/07/21 11:16:21;;;;;;;1.00;0.77;;;21.10;98.50;;;;;;5007395;28;20109;-77
2023/07/21 11:18:47;;;;;;;0.95;0.82;;;21.10;97.50;;;;;;5000764;28;20010;-77
2023/07/21 11:21:12;;;;;;;2.67;0.75;;;21.20;98.50;;;;;;5006168;28;20051;-78
2023/07/21 11:23:38;;;;;;;0.80;0.77;;;21.30;97.80;;;;;;5000248;28;20384;-77
2023/07/21 11:26:10;;;;;;;0.85;0.85;;;21.30;97.80;;;;;;4999640;28;20473;-78
2023/07/21 11:28:40;;;;;;;1.65;0.77;;;21.30;97.00;;;;;;5002940;28;20485;-77
2023/07/21 11:31:13;;;;;;;1.10;0.85;;;21.20;97.90;;;;;;5001487;28;20120;-77
2023/07/21 11:33:40;;;;;;;1.25;0.63;;;21.10;98.00;;;;;;5002385;28;20018;-77
2023/07/21 11:36:16;;;;;;;3.25;1.17;;;21.00;98.30;;;;;;4983890;28;20030;-78
2023/07/21 11:38:55;;;;;;;;;;;20.90;99.40;;;;;;4998490;28;20038;-77
2023/07/21 11:41:39;;;;;;;0.98;0.57;;;20.70;99.00;;;;;;4985882;28;19910;-77
2023/07/21 11:44:26;;;;;;;1.52;0.88;;;20.60;99.30;;;;;;4994001;28;20156;-78
2023/07/21 11:47:06;;;;;;;3.20;0.80;;;20.30;98.80;;;;;;4978316;28;20018;-77
2023/07/21 11:49:38;;;;;;;1.23;0.70;;;20.20;99.90;;;;;;4999969;28;20033;-77
2023/07/21 11:52:05;;;;;;;2.15;1.08;;;20.00;99.90;;;;;;5001572;28;20022;-76
2023/07/21 11:54:40;;;;;;;2.10;0.82;;;19.80;99.40;;;;;;4993471;28;20048;-76
2023/07/21 11:57:07;;;;;;;1.65;0.73;;;19.70;99.90;;;;;;4985633;28;20034;-76
2023/07/21 11:59:33;;;;;;;1.52;0.80;;;19.60;99.90;;;;;;5002210;28;20029;-76
2023/07/21 12:01:59;;;;;;;1.20;0.70;;;19.50;99.90;;;;;;5002255;28;20103;-76
2023/07/21 12:04:25;;;;;;;0.80;0.80;;;19.40;99.90;;;;;;5001872;28;20088;-77
2023/07/21 12:06:51;;;;;;;2.00;0.82;;;19.30;99.90;;;;;;5002457;28;20021;-77
2023/07/21 12:09:19;;;;;;;2.03;0.82;;;19.40;99.90;;;;;;4983856;28;20030;-77
2023/07/21 12:11:45;;;;;;;1.65;1.00;;;19.30;99.90;;;;;;4989483;28;20030;-77
2023/07/21 12:14:11;;;;;;;2.25;0.88;;;19.30;99.90;;;;;;4980743;28;20490;-76
2023/07/21 12:16:37;;;;;;;1.05;0.93;;;19.30;99.90;;;;;;5005931;28;20096;-77
2023/07/21 12:19:03;;;;;;;1.85;1.02;;;19.40;99.90;;;;;;4996330;28;20073;-75
2023/07/21 12:21:30;;;;;;;0.80;0.80;;;19.50;99.90;;;;;;5006451;28;20030;-77
2023/07/21 12:23:56;;;;;;;1.80;0.85;;;19.60;99.90;;;;;;4982225;28;20029;-77
2023/07/21 12:26:23;;;;;;;0.95;0.90;;;19.70;99.90;;;;;;4999435;28;20026;-77
2023/07/21 12:28:50;;;;;;;3.42;0.82;;;19.70;99.90;;;;;;5005171;28;20042;-77
2023/07/21 12:31:16;;;;;;;1.83;0.85;;;19.70;99.90;;;;;;4981035;28;20053;-77
2023/07/21 12:33:42;;;;;;;1.35;0.88;;;19.50;99.90;;;;;;5006885;28;20137;-76
2023/07/21 12:36:09;;;;;;;1.15;0.80;;;19.50;99.90;;;;;;4981113;28;20397;-77
2023/07/21 12:38:35;;;;;;;2.15;0.80;;;19.60;99.90;;;;;;5002705;28;20015;-77
2023/07/21 12:41:00;;;;;;;1.58;0.60;;;19.60;99.90;;;;;;5004467;28;20072;-76
2023/07/21 12:43:26;;;;;;;1.00;0.70;;;19.70;99.90;;;;;;4984092;28;20479;-77
2023/07/21 12:45:52;;;;;;;2.42;0.90;;;19.80;99.90;;;;;;5002366;28;20482;-77
2023/07/21 12:48:17;;;;;;;2.53;1.05;;;19.90;99.90;;;;;;4993332;28;20034;-75